sensor_id;sensor_type;location;lat;lon;timestamp;P1;durP1;ratioP1;P2;durP2;ratioP2
12980;SDS011;6555;50.468;8.480;2024-01-10T00:02:34;4.70;;;3.30;;
12980;SDS011;6555;50.468;8.480;2024-01-10T00:07:39;3.23;;;2.80;;
12980;SDS011;6555;50.468;8.480;2024-01-10T00:12:42;5.17;;;3.17;;
12980;SDS011;6555;50.468;8.480;2024-01-10T00:17:45;5.07;;;3.23;;
12980;SDS011;6555;50.468;8.480;2024-01-10T00:22:50;4.33;;;3.30;;
12980;SDS011;6555;50.468;8.480;2024-01-10T00:27:53;5.20;;;3.10;;
12980;SDS011;6555;50.468;8.480;2024-01-10T00:32:56;5.10;;;3.20;;
12980;SDS011;6555;50.468;8.480;2024-01-10T00:38:01;5.00;;;3.50;;
12980;SDS011;6555;50.468;8.480;2024-01-10T00:43:04;5.90;;;3.70;;
12980;SDS011;6555;50.468;8.480;2024-01-10T00:48:07;5.33;;;3.37;;
12980;SDS011;6555;50.468;8.480;2024-01-10T00:53:12;5.17;;;3.47;;
12980;SDS011;6555;50.468;8.480;2024-01-10T00:58:15;7.47;;;4.27;;
12980;SDS011;6555;50.468;8.480;2024-01-10T01:03:18;6.33;;;4.43;;
12980;SDS011;6555;50.468;8.480;2024-01-10T01:08:23;5.40;;;3.43;;
12980;SDS011;6555;50.468;8.480;2024-01-10T01:13:26;5.17;;;3.23;;
12980;SDS011;6555;50.468;8.480;2024-01-10T01:18:29;3.87;;;2.47;;
12980;SDS011;6555;50.468;8.480;2024-01-10T01:23:33;3.67;;;3.10;;
12980;SDS011;6555;50.468;8.480;2024-01-10T01:28:43;4.33;;;2.97;;
12980;SDS011;6555;50.468;8.480;2024-01-10T01:33:46;4.97;;;3.60;;
12980;SDS011;6555;50.468;8.480;2024-01-10T01:38:50;5.73;;;4.07;;
12980;SDS011;6555;50.468;8.480;2024-01-10T01:43:53;4.97;;;3.77;;
12980;SDS011;6555;50.468;8.480;2024-01-10T01:48:56;4.10;;;2.97;;
12980;SDS011;6555;50.468;8.480;2024-01-10T01:54:01;5.37;;;2.83;;
12980;SDS011;6555;50.468;8.480;2024-01-10T01:59:05;3.33;;;2.80;;
12980;SDS011;6555;50.468;8.480;2024-01-10T02:04:08;3.57;;;2.57;;
12980;SDS011;6555;50.468;8.480;2024-01-10T02:09:12;3.50;;;2.80;;
12980;SDS011;6555;50.468;8.480;2024-01-10T02:14:16;3.83;;;2.77;;
12980;SDS011;6555;50.468;8.480;2024-01-10T02:19:20;5.90;;;3.83;;
12980;SDS011;6555;50.468;8.480;2024-01-10T02:24:25;5.47;;;3.43;;
12980;SDS011;6555;50.468;8.480;2024-01-10T02:29:30;6.77;;;4.30;;
12980;SDS011;6555;50.468;8.480;2024-01-10T02:34:33;5.00;;;3.47;;
12980;SDS011;6555;50.468;8.480;2024-01-10T02:39:36;4.23;;;3.00;;
12980;SDS011;6555;50.468;8.480;2024-01-10T02:44:40;3.80;;;2.97;;
12980;SDS011;6555;50.468;8.480;2024-01-10T02:49:43;3.47;;;2.90;;
12980;SDS011;6555;50.468;8.480;2024-01-10T02:54:46;4.67;;;2.93;;
12980;SDS011;6555;50.468;8.480;2024-01-10T02:59:51;4.30;;;2.57;;
12980;SDS011;6555;50.468;8.480;2024-01-10T03:04:54;4.27;;;2.80;;
12980;SDS011;6555;50.468;8.480;2024-01-10T03:09:57;5.20;;;3.13;;
12980;SDS011;6555;50.468;8.480;2024-01-10T03:15:01;3.73;;;3.03;;
12980;SDS011;6555;50.468;8.480;2024-01-10T03:20:05;4.30;;;3.17;;
12980;SDS011;6555;50.468;8.480;2024-01-10T03:25:09;3.73;;;2.73;;
12980;SDS011;6555;50.468;8.480;2024-01-10T03:30:14;3.70;;;2.53;;
12980;SDS011;6555;50.468;8.480;2024-01-10T03:35:20;4.70;;;3.20;;
12980;SDS011;6555;50.468;8.480;2024-01-10T03:40:23;2.73;;;2.37;;
12980;SDS011;6555;50.468;8.480;2024-01-10T03:45:27;4.27;;;2.50;;
12980;SDS011;6555;50.468;8.480;2024-01-10T03:50:31;4.40;;;3.27;;
12980;SDS011;6555;50.468;8.480;2024-01-10T03:55:33;4.20;;;3.57;;
12980;SDS011;6555;50.468;8.480;2024-01-10T04:00:38;3.17;;;2.43;;
12980;SDS011;6555;50.468;8.480;2024-01-10T04:05:41;3.47;;;2.70;;
12980;SDS011;6555;50.468;8.480;2024-01-10T04:10:44;4.40;;;2.43;;
12980;SDS011;6555;50.468;8.480;2024-01-10T04:15:49;3.33;;;2.90;;
12980;SDS011;6555;50.468;8.480;2024-01-10T04:20:52;3.13;;;2.77;;
12980;SDS011;6555;50.468;8.480;2024-01-10T04:25:55;5.20;;;2.73;;
12980;SDS011;6555;50.468;8.480;2024-01-10T04:30:59;5.20;;;3.50;;
12980;SDS011;6555;50.468;8.480;2024-01-10T04:36:02;3.17;;;2.80;;
12980;SDS011;6555;50.468;8.480;2024-01-10T04:41:05;2.97;;;2.37;;
12980;SDS011;6555;50.468;8.480;2024-01-10T04:46:10;4.77;;;2.90;;
12980;SDS011;6555;50.468;8.480;2024-01-10T04:51:13;3.63;;;2.80;;
12980;SDS011;6555;50.468;8.480;2024-01-10T04:56:17;2.97;;;2.20;;
12980;SDS011;6555;50.468;8.480;2024-01-10T05:01:21;4.90;;;3.60;;
12980;SDS011;6555;50.468;8.480;2024-01-10T05:06:25;4.57;;;3.00;;
12980;SDS011;6555;50.468;8.480;2024-01-10T05:11:30;4.00;;;3.13;;
12980;SDS011;6555;50.468;8.480;2024-01-10T05:16:35;3.07;;;2.50;;
12980;SDS011;6555;50.468;8.480;2024-01-10T05:21:38;3.53;;;3.10;;
12980;SDS011;6555;50.468;8.480;2024-01-10T05:26:41;7.40;;;3.80;;
12980;SDS011;6555;50.468;8.480;2024-01-10T05:31:45;4.00;;;3.57;;
12980;SDS011;6555;50.468;8.480;2024-01-10T05:36:48;4.80;;;3.07;;
12980;SDS011;6555;50.468;8.480;2024-01-10T05:41:51;2.63;;;2.20;;
12980;SDS011;6555;50.468;8.480;2024-01-10T05:46:56;4.50;;;2.77;;
12980;SDS011;6555;50.468;8.480;2024-01-10T05:52:00;4.70;;;3.43;;
12980;SDS011;6555;50.468;8.480;2024-01-10T05:57:04;4.10;;;3.17;;
12980;SDS011;6555;50.468;8.480;2024-01-10T06:02:08;5.27;;;3.70;;
12980;SDS011;6555;50.468;8.480;2024-01-10T06:07:11;6.13;;;4.00;;
12980;SDS011;6555;50.468;8.480;2024-01-10T06:12:14;4.17;;;3.07;;
12980;SDS011;6555;50.468;8.480;2024-01-10T06:17:18;4.07;;;3.27;;
12980;SDS011;6555;50.468;8.480;2024-01-10T06:22:21;5.27;;;3.30;;
12980;SDS011;6555;50.468;8.480;2024-01-10T06:27:30;3.93;;;2.87;;
12980;SDS011;6555;50.468;8.480;2024-01-10T06:32:34;4.23;;;3.07;;
12980;SDS011;6555;50.468;8.480;2024-01-10T06:37:37;5.53;;;3.10;;
12980;SDS011;6555;50.468;8.480;2024-01-10T06:42:41;6.57;;;3.30;;
12980;SDS011;6555;50.468;8.480;2024-01-10T06:47:45;3.50;;;2.83;;
12980;SDS011;6555;50.468;8.480;2024-01-10T06:52:48;3.30;;;2.60;;
12980;SDS011;6555;50.468;8.480;2024-01-10T06:57:51;4.63;;;3.20;;
12980;SDS011;6555;50.468;8.480;2024-01-10T07:02:56;4.90;;;3.27;;
12980;SDS011;6555;50.468;8.480;2024-01-10T07:08:03;4.87;;;3.20;;
12980;SDS011;6555;50.468;8.480;2024-01-10T07:13:07;3.90;;;2.77;;
12980;SDS011;6555;50.468;8.480;2024-01-10T07:18:11;5.17;;;3.77;;
12980;SDS011;6555;50.468;8.480;2024-01-10T07:23:14;4.73;;;3.23;;
12980;SDS011;6555;50.468;8.480;2024-01-10T07:28:17;4.50;;;3.33;;
12980;SDS011;6555;50.468;8.480;2024-01-10T07:33:22;4.07;;;3.10;;
12980;SDS011;6555;50.468;8.480;2024-01-10T07:38:25;4.00;;;2.90;;
12980;SDS011;6555;50.468;8.480;2024-01-10T07:43:28;4.07;;;3.37;;
12980;SDS011;6555;50.468;8.480;2024-01-10T07:48:32;3.93;;;3.23;;
12980;SDS011;6555;50.468;8.480;2024-01-10T07:53:37;5.37;;;3.87;;
12980;SDS011;6555;50.468;8.480;2024-01-10T07:58:40;4.67;;;3.53;;
12980;SDS011;6555;50.468;8.480;2024-01-10T08:03:44;7.40;;;4.10;;
12980;SDS011;6555;50.468;8.480;2024-01-10T08:08:47;6.30;;;4.00;;
12980;SDS011;6555;50.468;8.480;2024-01-10T08:13:50;5.43;;;4.00;;
12980;SDS011;6555;50.468;8.480;2024-01-10T08:18:55;5.90;;;4.20;;
12980;SDS011;6555;50.468;8.480;2024-01-10T08:23:58;6.40;;;4.43;;
12980;SDS011;6555;50.468;8.480;2024-01-10T08:29:02;8.60;;;5.30;;
12980;SDS011;6555;50.468;8.480;2024-01-10T08:34:06;9.47;;;5.47;;
12980;SDS011;6555;50.468;8.480;2024-01-10T08:39:09;10.10;;;6.07;;
12980;SDS011;6555;50.468;8.480;2024-01-10T08:44:12;12.53;;;7.07;;
12980;SDS011;6555;50.468;8.480;2024-01-10T08:49:17;11.97;;;7.20;;
12980;SDS011;6555;50.468;8.480;2024-01-10T08:54:20;11.13;;;6.80;;
12980;SDS011;6555;50.468;8.480;2024-01-10T08:59:24;10.93;;;6.53;;
12980;SDS011;6555;50.468;8.480;2024-01-10T09:04:30;10.63;;;6.43;;
12980;SDS011;6555;50.468;8.480;2024-01-10T09:09:37;7.90;;;4.93;;
12980;SDS011;6555;50.468;8.480;2024-01-10T09:14:40;7.97;;;5.53;;
12980;SDS011;6555;50.468;8.480;2024-01-10T09:19:45;8.53;;;5.90;;
12980;SDS011;6555;50.468;8.480;2024-01-10T09:24:48;9.73;;;6.00;;
12980;SDS011;6555;50.468;8.480;2024-01-10T09:29:51;13.03;;;8.17;;
12980;SDS011;6555;50.468;8.480;2024-01-10T09:34:55;14.60;;;7.73;;
12980;SDS011;6555;50.468;8.480;2024-01-10T09:39:58;20.47;;;10.50;;
12980;SDS011;6555;50.468;8.480;2024-01-10T09:45:03;14.10;;;8.33;;
12980;SDS011;6555;50.468;8.480;2024-01-10T09:50:09;10.70;;;6.87;;
12980;SDS011;6555;50.468;8.480;2024-01-10T09:55:12;10.47;;;6.37;;
12980;SDS011;6555;50.468;8.480;2024-01-10T10:00:17;10.43;;;5.67;;
12980;SDS011;6555;50.468;8.480;2024-01-10T10:05:22;10.03;;;6.63;;
12980;SDS011;6555;50.468;8.480;2024-01-10T10:10:25;9.87;;;5.90;;
12980;SDS011;6555;50.468;8.480;2024-01-10T10:15:29;8.77;;;5.90;;
12980;SDS011;6555;50.468;8.480;2024-01-10T10:20:33;8.10;;;5.63;;
12980;SDS011;6555;50.468;8.480;2024-01-10T10:25:43;8.77;;;5.77;;
12980;SDS011;6555;50.468;8.480;2024-01-10T10:30:47;7.80;;;5.40;;
12980;SDS011;6555;50.468;8.480;2024-01-10T10:35:56;8.60;;;5.47;;
12980;SDS011;6555;50.468;8.480;2024-01-10T10:40:59;8.67;;;6.00;;
12980;SDS011;6555;50.468;8.480;2024-01-10T10:46:02;9.07;;;6.20;;
12980;SDS011;6555;50.468;8.480;2024-01-10T10:51:08;8.63;;;6.03;;
12980;SDS011;6555;50.468;8.480;2024-01-10T10:56:13;12.33;;;8.37;;
12980;SDS011;6555;50.468;8.480;2024-01-10T11:01:16;8.77;;;6.10;;
12980;SDS011;6555;50.468;8.480;2024-01-10T11:06:22;7.87;;;5.57;;
12980;SDS011;6555;50.468;8.480;2024-01-10T11:11:34;9.47;;;6.10;;
12980;SDS011;6555;50.468;8.480;2024-01-10T11:17:04;10.37;;;6.70;;
12980;SDS011;6555;50.468;8.480;2024-01-10T11:22:25;9.53;;;6.13;;
12980;SDS011;6555;50.468;8.480;2024-01-10T11:27:42;8.93;;;6.03;;
12980;SDS011;6555;50.468;8.480;2024-01-10T11:32:45;7.87;;;5.37;;
12980;SDS011;6555;50.468;8.480;2024-01-10T11:37:49;8.87;;;6.03;;
12980;SDS011;6555;50.468;8.480;2024-01-10T11:42:52;14.30;;;8.97;;
12980;SDS011;6555;50.468;8.480;2024-01-10T11:47:55;9.80;;;6.20;;
12980;SDS011;6555;50.468;8.480;2024-01-10T11:53:00;8.63;;;6.93;;
12980;SDS011;6555;50.468;8.480;2024-01-10T11:58:07;10.90;;;6.87;;
12980;SDS011;6555;50.468;8.480;2024-01-10T12:03:11;9.37;;;6.10;;
12980;SDS011;6555;50.468;8.480;2024-01-10T12:08:16;9.60;;;6.47;;
12980;SDS011;6555;50.468;8.480;2024-01-10T12:13:21;9.33;;;6.00;;
12980;SDS011;6555;50.468;8.480;2024-01-10T12:18:24;9.13;;;6.00;;
12980;SDS011;6555;50.468;8.480;2024-01-10T12:23:29;10.50;;;6.57;;
12980;SDS011;6555;50.468;8.480;2024-01-10T12:28:33;10.13;;;5.97;;
12980;SDS011;6555;50.468;8.480;2024-01-10T12:33:36;12.93;;;8.07;;
12980;SDS011;6555;50.468;8.480;2024-01-10T12:38:42;13.63;;;8.70;;
12980;SDS011;6555;50.468;8.480;2024-01-10T12:43:48;10.30;;;6.70;;
12980;SDS011;6555;50.468;8.480;2024-01-10T12:48:59;12.03;;;7.27;;
12980;SDS011;6555;50.468;8.480;2024-01-10T12:54:05;21.23;;;12.73;;
12980;SDS011;6555;50.468;8.480;2024-01-10T12:59:08;13.73;;;8.17;;
12980;SDS011;6555;50.468;8.480;2024-01-10T13:04:12;11.37;;;7.37;;
12980;SDS011;6555;50.468;8.480;2024-01-10T13:09:16;10.33;;;7.33;;
12980;SDS011;6555;50.468;8.480;2024-01-10T13:14:20;11.57;;;7.13;;
12980;SDS011;6555;50.468;8.480;2024-01-10T13:19:23;12.43;;;7.43;;
12980;SDS011;6555;50.468;8.480;2024-01-10T13:24:29;9.10;;;5.93;;
12980;SDS011;6555;50.468;8.480;2024-01-10T13:29:32;10.43;;;6.70;;
12980;SDS011;6555;50.468;8.480;2024-01-10T13:34:36;8.03;;;5.37;;
12980;SDS011;6555;50.468;8.480;2024-01-10T13:39:41;7.13;;;5.20;;
12980;SDS011;6555;50.468;8.480;2024-01-10T13:44:45;8.20;;;6.07;;
12980;SDS011;6555;50.468;8.480;2024-01-10T13:49:48;8.40;;;5.30;;
12980;SDS011;6555;50.468;8.480;2024-01-10T13:54:52;7.67;;;5.50;;
12980;SDS011;6555;50.468;8.480;2024-01-10T13:59:55;5.77;;;4.23;;
12980;SDS011;6555;50.468;8.480;2024-01-10T14:04:58;9.83;;;6.77;;
12980;SDS011;6555;50.468;8.480;2024-01-10T14:10:08;9.00;;;5.63;;
12980;SDS011;6555;50.468;8.480;2024-01-10T14:15:12;8.77;;;6.37;;
12980;SDS011;6555;50.468;8.480;2024-01-10T14:20:15;8.67;;;5.70;;
12980;SDS011;6555;50.468;8.480;2024-01-10T14:25:19;8.23;;;5.23;;
12980;SDS011;6555;50.468;8.480;2024-01-10T14:30:22;8.80;;;5.67;;
12980;SDS011;6555;50.468;8.480;2024-01-10T14:35:26;9.10;;;5.67;;
12980;SDS011;6555;50.468;8.480;2024-01-10T14:40:31;8.93;;;5.57;;
12980;SDS011;6555;50.468;8.480;2024-01-10T14:45:34;8.37;;;5.50;;
12980;SDS011;6555;50.468;8.480;2024-01-10T14:50:38;9.60;;;5.63;;
12980;SDS011;6555;50.468;8.480;2024-01-10T14:55:42;8.40;;;6.03;;
12980;SDS011;6555;50.468;8.480;2024-01-10T15:00:46;6.23;;;4.70;;
12980;SDS011;6555;50.468;8.480;2024-01-10T15:05:49;8.30;;;5.97;;
12980;SDS011;6555;50.468;8.480;2024-01-10T15:10:54;9.10;;;5.33;;
12980;SDS011;6555;50.468;8.480;2024-01-10T15:15:57;7.80;;;5.07;;
12980;SDS011;6555;50.468;8.480;2024-01-10T15:21:00;8.10;;;5.13;;
12980;SDS011;6555;50.468;8.480;2024-01-10T15:26:06;6.60;;;5.10;;
12980;SDS011;6555;50.468;8.480;2024-01-10T15:31:13;5.53;;;4.37;;
12980;SDS011;6555;50.468;8.480;2024-01-10T15:36:16;7.13;;;5.23;;
12980;SDS011;6555;50.468;8.480;2024-01-10T15:41:21;9.73;;;5.43;;
12980;SDS011;6555;50.468;8.480;2024-01-10T15:46:24;7.20;;;4.80;;
12980;SDS011;6555;50.468;8.480;2024-01-10T15:51:27;5.70;;;4.13;;
12980;SDS011;6555;50.468;8.480;2024-01-10T15:56:31;5.90;;;4.17;;
12980;SDS011;6555;50.468;8.480;2024-01-10T16:01:39;5.57;;;3.97;;
12980;SDS011;6555;50.468;8.480;2024-01-10T16:06:42;6.37;;;4.30;;
12980;SDS011;6555;50.468;8.480;2024-01-10T16:11:47;6.90;;;4.47;;
12980;SDS011;6555;50.468;8.480;2024-01-10T16:16:51;6.53;;;4.73;;
12980;SDS011;6555;50.468;8.480;2024-01-10T16:21:54;5.50;;;4.03;;
12980;SDS011;6555;50.468;8.480;2024-01-10T16:26:58;5.23;;;3.97;;
12980;SDS011;6555;50.468;8.480;2024-01-10T16:32:02;6.70;;;3.93;;
12980;SDS011;6555;50.468;8.480;2024-01-10T16:37:06;10.47;;;5.23;;
12980;SDS011;6555;50.468;8.480;2024-01-10T16:42:11;5.43;;;4.33;;
12980;SDS011;6555;50.468;8.480;2024-01-10T16:47:15;7.03;;;4.43;;
12980;SDS011;6555;50.468;8.480;2024-01-10T16:52:18;6.33;;;4.30;;
12980;SDS011;6555;50.468;8.480;2024-01-10T16:57:23;5.90;;;4.27;;
12980;SDS011;6555;50.468;8.480;2024-01-10T17:02:26;6.57;;;4.53;;
12980;SDS011;6555;50.468;8.480;2024-01-10T17:07:29;5.47;;;4.20;;
12980;SDS011;6555;50.468;8.480;2024-01-10T17:12:34;6.00;;;3.93;;
12980;SDS011;6555;50.468;8.480;2024-01-10T17:17:37;4.67;;;3.23;;
12980;SDS011;6555;50.468;8.480;2024-01-10T17:22:41;5.90;;;4.27;;
12980;SDS011;6555;50.468;8.480;2024-01-10T17:27:45;5.97;;;4.27;;
12980;SDS011;6555;50.468;8.480;2024-01-10T17:32:48;5.57;;;3.90;;
12980;SDS011;6555;50.468;8.480;2024-01-10T17:37:51;5.03;;;3.80;;
12980;SDS011;6555;50.468;8.480;2024-01-10T17:42:56;7.50;;;4.43;;
12980;SDS011;6555;50.468;8.480;2024-01-10T17:48:00;5.63;;;3.83;;
12980;SDS011;6555;50.468;8.480;2024-01-10T17:53:04;6.47;;;4.83;;
12980;SDS011;6555;50.468;8.480;2024-01-10T17:58:09;7.50;;;5.10;;
12980;SDS011;6555;50.468;8.480;2024-01-10T18:03:12;6.43;;;4.57;;
12980;SDS011;6555;50.468;8.480;2024-01-10T18:08:15;7.00;;;4.40;;
12980;SDS011;6555;50.468;8.480;2024-01-10T18:13:20;5.40;;;4.13;;
12980;SDS011;6555;50.468;8.480;2024-01-10T18:18:23;5.57;;;4.03;;
12980;SDS011;6555;50.468;8.480;2024-01-10T18:23:26;5.20;;;3.93;;
12980;SDS011;6555;50.468;8.480;2024-01-10T18:28:30;6.23;;;3.70;;
12980;SDS011;6555;50.468;8.480;2024-01-10T18:33:35;6.50;;;4.63;;
12980;SDS011;6555;50.468;8.480;2024-01-10T18:38:38;6.10;;;3.90;;
12980;SDS011;6555;50.468;8.480;2024-01-10T18:43:43;6.50;;;4.23;;
12980;SDS011;6555;50.468;8.480;2024-01-10T18:48:46;7.23;;;4.73;;
12980;SDS011;6555;50.468;8.480;2024-01-10T18:53:50;7.43;;;4.67;;
12980;SDS011;6555;50.468;8.480;2024-01-10T18:58:55;6.40;;;4.40;;
12980;SDS011;6555;50.468;8.480;2024-01-10T19:03:58;6.10;;;4.23;;
12980;SDS011;6555;50.468;8.480;2024-01-10T19:09:01;4.63;;;3.53;;
12980;SDS011;6555;50.468;8.480;2024-01-10T19:14:05;5.40;;;3.90;;
12980;SDS011;6555;50.468;8.480;2024-01-10T19:19:09;6.17;;;4.43;;
12980;SDS011;6555;50.468;8.480;2024-01-10T19:24:12;6.27;;;4.60;;
12980;SDS011;6555;50.468;8.480;2024-01-10T19:29:16;6.90;;;5.07;;
12980;SDS011;6555;50.468;8.480;2024-01-10T19:34:19;7.93;;;4.40;;
12980;SDS011;6555;50.468;8.480;2024-01-10T19:39:24;8.07;;;4.73;;
12980;SDS011;6555;50.468;8.480;2024-01-10T19:44:28;6.23;;;4.73;;
12980;SDS011;6555;50.468;8.480;2024-01-10T19:49:31;6.90;;;5.10;;
12980;SDS011;6555;50.468;8.480;2024-01-10T19:54:36;5.43;;;4.50;;
12980;SDS011;6555;50.468;8.480;2024-01-10T19:59:41;8.07;;;5.73;;
12980;SDS011;6555;50.468;8.480;2024-01-10T20:04:44;7.27;;;4.93;;
12980;SDS011;6555;50.468;8.480;2024-01-10T20:09:47;6.23;;;4.40;;
12980;SDS011;6555;50.468;8.480;2024-01-10T20:14:53;6.27;;;3.97;;
12980;SDS011;6555;50.468;8.480;2024-01-10T20:19:56;6.77;;;4.57;;
12980;SDS011;6555;50.468;8.480;2024-01-10T20:25:00;5.87;;;4.20;;
12980;SDS011;6555;50.468;8.480;2024-01-10T20:30:05;6.47;;;4.00;;
12980;SDS011;6555;50.468;8.480;2024-01-10T20:35:09;4.33;;;3.30;;
12980;SDS011;6555;50.468;8.480;2024-01-10T20:40:12;6.87;;;4.77;;
12980;SDS011;6555;50.468;8.480;2024-01-10T20:45:18;8.13;;;5.37;;
12980;SDS011;6555;50.468;8.480;2024-01-10T20:50:21;8.17;;;5.10;;
12980;SDS011;6555;50.468;8.480;2024-01-10T20:55:24;8.07;;;4.70;;
12980;SDS011;6555;50.468;8.480;2024-01-10T21:00:28;10.23;;;6.03;;
12980;SDS011;6555;50.468;8.480;2024-01-10T21:05:34;7.10;;;4.63;;
12980;SDS011;6555;50.468;8.480;2024-01-10T21:10:37;7.80;;;5.00;;
12980;SDS011;6555;50.468;8.480;2024-01-10T21:15:42;6.13;;;4.50;;
12980;SDS011;6555;50.468;8.480;2024-01-10T21:20:45;5.60;;;4.23;;
12980;SDS011;6555;50.468;8.480;2024-01-10T21:25:48;6.00;;;4.27;;
12980;SDS011;6555;50.468;8.480;2024-01-10T21:30:52;5.07;;;3.67;;
12980;SDS011;6555;50.468;8.480;2024-01-10T21:35:55;4.97;;;3.87;;
12980;SDS011;6555;50.468;8.480;2024-01-10T21:40:59;5.70;;;4.10;;
12980;SDS011;6555;50.468;8.480;2024-01-10T21:46:03;5.00;;;3.67;;
12980;SDS011;6555;50.468;8.480;2024-01-10T21:51:06;4.97;;;3.33;;
12980;SDS011;6555;50.468;8.480;2024-01-10T21:56:10;5.57;;;4.03;;
12980;SDS011;6555;50.468;8.480;2024-01-10T22:01:15;5.00;;;3.93;;
12980;SDS011;6555;50.468;8.480;2024-01-10T22:06:19;6.77;;;4.37;;
12980;SDS011;6555;50.468;8.480;2024-01-10T22:11:22;6.77;;;4.37;;
12980;SDS011;6555;50.468;8.480;2024-01-10T22:16:27;5.90;;;3.93;;
12980;SDS011;6555;50.468;8.480;2024-01-10T22:21:30;5.83;;;4.20;;
12980;SDS011;6555;50.468;8.480;2024-01-10T22:26:33;7.10;;;4.33;;
12980;SDS011;6555;50.468;8.480;2024-01-10T22:31:37;7.20;;;4.93;;
12980;SDS011;6555;50.468;8.480;2024-01-10T22:36:40;6.73;;;5.03;;
12980;SDS011;6555;50.468;8.480;2024-01-10T22:41:43;6.93;;;4.77;;
12980;SDS011;6555;50.468;8.480;2024-01-10T22:46:47;5.30;;;3.67;;
12980;SDS011;6555;50.468;8.480;2024-01-10T22:51:50;5.30;;;4.07;;
12980;SDS011;6555;50.468;8.480;2024-01-10T22:56:53;5.90;;;4.30;;
12980;SDS011;6555;50.468;8.480;2024-01-10T23:01:58;5.73;;;4.20;;
12980;SDS011;6555;50.468;8.480;2024-01-10T23:07:01;5.77;;;4.00;;
12980;SDS011;6555;50.468;8.480;2024-01-10T23:12:04;6.80;;;4.13;;
12980;SDS011;6555;50.468;8.480;2024-01-10T23:17:10;3.10;;;2.80;;
12980;SDS011;6555;50.468;8.480;2024-01-10T23:22:13;4.20;;;3.10;;
12980;SDS011;6555;50.468;8.480;2024-01-10T23:27:16;5.47;;;4.13;;
12980;SDS011;6555;50.468;8.480;2024-01-10T23:32:23;9.80;;;5.80;;
12980;SDS011;6555;50.468;8.480;2024-01-10T23:37:26;8.30;;;5.53;;
12980;SDS011;6555;50.468;8.480;2024-01-10T23:42:29;5.23;;;3.60;;
12980;SDS011;6555;50.468;8.480;2024-01-10T23:47:33;6.30;;;5.17;;
12980;SDS011;6555;50.468;8.480;2024-01-10T23:52:36;7.20;;;5.07;;
12980;SDS011;6555;50.468;8.480;2024-01-10T23:57:39;6.43;;;3.70;;
